createdAt,value
2019-06-26T00:01:36.333Z,6.05
2019-06-26T00:04:04.213Z,6.12
2019-06-26T00:06:32.126Z,5.70
2019-06-26T00:09:00.041Z,5.75
2019-06-26T00:11:27.935Z,5.70
2019-06-26T00:13:55.819Z,6.20
2019-06-26T00:16:23.700Z,5.78
2019-06-26T00:18:51.629Z,6.03
2019-06-26T00:21:21.928Z,6.37
2019-06-26T00:23:49.300Z,6.33
2019-06-26T00:26:17.191Z,6.25
2019-06-26T00:28:45.134Z,5.70
2019-06-26T00:31:12.993Z,6.22
2019-06-26T00:33:41.014Z,6.15
2019-06-26T00:36:08.964Z,6.05
2019-06-26T00:38:39.979Z,6.28
2019-06-26T00:41:06.424Z,5.92
2019-06-26T00:43:42.305Z,5.75
2019-06-26T00:46:03.957Z,6.22
2019-06-26T00:48:31.863Z,5.95
2019-06-26T00:50:59.738Z,6.12
2019-06-26T00:53:27.664Z,5.90
2019-06-26T00:55:55.544Z,6.00
2019-06-26T00:58:23.432Z,5.50
2019-06-26T01:00:51.392Z,6.15
2019-06-26T01:03:19.283Z,6.15
2019-06-26T01:05:47.146Z,6.35
2019-06-26T01:08:15.065Z,5.90
2019-06-26T01:10:42.976Z,6.42
2019-06-26T01:13:10.853Z,6.17
2019-06-26T01:15:38.724Z,6.47
2019-06-26T01:18:06.641Z,6.42
2019-06-26T01:20:34.518Z,6.40
2019-06-26T01:23:02.421Z,6.17
2019-06-26T01:25:30.403Z,6.72
2019-06-26T01:27:58.327Z,6.10
2019-06-26T01:30:26.235Z,6.12
2019-06-26T01:32:54.138Z,6.20
2019-06-26T01:38:13.545Z,5.90
2019-06-26T01:40:41.403Z,6.10
2019-06-26T01:43:09.361Z,5.87
2019-06-26T01:45:37.279Z,6.58
2019-06-26T01:48:05.320Z,6.20
2019-06-26T01:50:33.276Z,5.75
2019-06-26T01:53:01.174Z,5.83
2019-06-26T01:55:29.098Z,6.10
2019-06-26T01:57:57.010Z,6.47
2019-06-26T02:00:24.941Z,6.15
2019-06-26T02:02:52.948Z,6.40
2019-06-26T02:05:20.846Z,6.50
2019-06-26T02:07:48.712Z,6.08
2019-06-26T02:10:16.635Z,6.58
2019-06-26T02:12:44.548Z,6.35
2019-06-26T02:15:12.425Z,6.60
2019-06-26T02:17:40.394Z,6.33
2019-06-26T02:20:08.447Z,6.50
2019-06-26T02:22:36.419Z,6.10
2019-06-26T02:25:04.324Z,6.40
2019-06-26T02:27:32.171Z,6.40
2019-06-26T02:30:03.219Z,6.03
2019-06-26T02:32:31.121Z,6.40
2019-06-26T02:34:59.115Z,6.10
2019-06-26T02:37:26.979Z,6.10
2019-06-26T02:39:54.849Z,6.12
2019-06-26T02:42:22.744Z,5.85
2019-06-26T02:44:53.676Z,6.35
2019-06-26T02:47:21.022Z,6.55
2019-06-26T02:49:49.120Z,6.05
2019-06-26T02:52:17.065Z,6.25
2019-06-26T02:54:45.055Z,6.97
2019-06-26T02:57:13.005Z,6.47
2019-06-26T02:59:40.905Z,6.10
2019-06-26T03:02:08.748Z,6.35
2019-06-26T03:04:36.595Z,6.37
2019-06-26T03:07:04.494Z,6.40
2019-06-26T03:09:32.432Z,6.62
2019-06-26T03:12:00.302Z,6.58
2019-06-26T03:14:28.132Z,6.45
2019-06-26T03:16:56.199Z,6.35
2019-06-26T03:19:24.059Z,6.58
2019-06-26T03:21:51.957Z,6.47
2019-06-26T03:24:19.875Z,6.17
2019-06-26T03:26:47.733Z,6.42
2019-06-26T03:29:15.573Z,6.15
2019-06-26T03:31:43.545Z,7.05
2019-06-26T03:34:11.448Z,6.78
2019-06-26T03:36:39.364Z,6.62
2019-06-26T03:39:07.235Z,6.53
2019-06-26T03:41:35.215Z,7.05
2019-06-26T03:44:03.153Z,6.70
2019-06-26T03:46:31.017Z,6.60
2019-06-26T03:48:58.861Z,6.47
2019-06-26T03:51:27.023Z,6.80
2019-06-26T03:53:54.972Z,6.92
2019-06-26T03:56:22.919Z,7.00
2019-06-26T03:58:50.809Z,6.90
2019-06-26T04:01:18.755Z,6.95
2019-06-26T04:03:46.618Z,7.20
2019-06-26T04:06:14.531Z,7.00
2019-06-26T04:08:42.404Z,6.72
2019-06-26T04:11:10.443Z,7.25
2019-06-26T04:13:38.359Z,6.55
2019-06-26T04:16:06.237Z,7.17
2019-06-26T04:18:34.119Z,7.28
2019-06-26T04:21:02.040Z,7.47
2019-06-26T04:23:30.014Z,7.37
2019-06-26T04:25:57.849Z,7.20
2019-06-26T04:28:25.706Z,7.40
2019-06-26T04:30:53.591Z,7.60
2019-06-26T04:33:21.491Z,8.13
2019-06-26T04:35:49.405Z,7.65
2019-06-26T04:38:17.284Z,7.45
2019-06-26T04:40:45.122Z,7.75
2019-06-26T04:43:13.040Z,7.85
2019-06-26T04:45:56.945Z,7.97
2019-06-26T04:48:10.635Z,8.15
2019-06-26T04:50:38.605Z,7.30
2019-06-26T04:53:06.621Z,7.30
2019-06-26T04:55:34.528Z,7.97
2019-06-26T04:58:02.423Z,7.53
2019-06-26T05:00:30.266Z,7.55
2019-06-26T05:02:58.151Z,7.75
2019-06-26T05:05:38.970Z,7.78
2019-06-26T05:07:55.730Z,7.90
2019-06-26T05:10:23.697Z,7.58
2019-06-26T05:12:51.588Z,7.20
2019-06-26T05:15:19.444Z,7.05
2019-06-26T05:17:47.368Z,7.53
2019-06-26T05:20:15.243Z,7.10
2019-06-26T05:22:43.207Z,6.92
2019-06-26T05:25:11.055Z,7.40
2019-06-26T05:27:38.933Z,7.40
2019-06-26T05:30:06.793Z,8.13
2019-06-26T05:32:34.655Z,7.40
2019-06-26T05:35:02.525Z,7.20
2019-06-26T05:37:30.424Z,7.10
2019-06-26T05:39:58.304Z,7.53
2019-06-26T05:42:26.275Z,6.95
2019-06-26T05:44:54.120Z,7.30
2019-06-26T05:47:22.292Z,7.00
2019-06-26T05:49:50.356Z,7.47
2019-06-26T05:52:18.386Z,7.53
2019-06-26T05:54:46.259Z,7.83
2019-06-26T05:57:14.218Z,7.35
2019-06-26T05:59:42.156Z,8.00
2019-06-26T06:02:10.112Z,7.53
2019-06-26T06:04:38.048Z,7.08
2019-06-26T06:07:05.991Z,7.95
2019-06-26T06:09:33.883Z,7.42
2019-06-26T06:12:01.818Z,7.62
2019-06-26T06:14:29.768Z,7.47
2019-06-26T06:16:57.630Z,7.58
2019-06-26T06:19:25.479Z,7.67
2019-06-26T06:21:53.422Z,7.40
2019-06-26T06:24:21.407Z,7.37
2019-06-26T06:26:49.283Z,7.10
2019-06-26T06:29:17.236Z,7.17
2019-06-26T06:31:45.106Z,7.35
2019-06-26T06:34:13.010Z,7.17
2019-06-26T06:36:40.891Z,7.70
2019-06-26T06:39:08.790Z,7.58
2019-06-26T06:41:36.674Z,7.75
2019-06-26T06:44:04.602Z,7.90
2019-06-26T06:46:32.475Z,7.78
2019-06-26T06:49:00.382Z,7.95
2019-06-26T06:51:28.273Z,7.28
2019-06-26T06:53:56.163Z,8.43
2019-06-26T06:56:24.003Z,8.15
2019-06-26T06:58:51.949Z,8.45
2019-06-26T07:01:19.815Z,8.73
2019-06-26T07:03:47.776Z,8.80
2019-06-26T07:06:15.652Z,9.18
2019-06-26T07:08:43.678Z,9.13
2019-06-26T07:11:11.533Z,9.48
2019-06-26T07:13:39.803Z,10.38
2019-06-26T07:16:08.019Z,10.28
2019-06-26T07:18:36.005Z,10.70
2019-06-26T07:21:03.901Z,11.40
2019-06-26T07:23:31.856Z,11.60
2019-06-26T07:25:59.808Z,13.93
2019-06-26T07:28:27.773Z,16.95
2019-06-26T07:30:55.670Z,17.40
2019-06-26T07:33:23.631Z,16.82
2019-06-26T07:35:51.553Z,17.00
2019-06-26T07:38:19.432Z,17.65
2019-06-26T07:40:47.510Z,18.05
2019-06-26T07:43:16.557Z,17.12
2019-06-26T07:45:44.852Z,16.73
2019-06-26T07:48:12.818Z,17.50
2019-06-26T07:50:40.822Z,17.70
2019-06-26T07:53:08.680Z,16.97
2019-06-26T07:55:39.583Z,17.48
2019-06-26T07:58:06.212Z,17.40
2019-06-26T08:00:34.129Z,17.35
2019-06-26T08:03:04.411Z,18.10
2019-06-26T08:05:31.798Z,17.27
2019-06-26T08:07:59.781Z,16.55
2019-06-26T08:10:27.690Z,16.37
2019-06-26T08:12:55.573Z,16.10
2019-06-26T08:15:23.571Z,15.35
2019-06-26T08:18:00.524Z,16.02
2019-06-26T08:20:21.188Z,15.05
2019-06-26T08:22:49.177Z,15.32
2019-06-26T08:25:17.098Z,15.30
2019-06-26T08:27:45.053Z,14.55
2019-06-26T08:30:12.946Z,14.38
2019-06-26T08:32:40.968Z,13.68
2019-06-26T08:35:08.882Z,13.60
2019-06-26T08:37:36.875Z,14.00
2019-06-26T08:40:04.789Z,14.20
2019-06-26T08:42:32.741Z,13.43
2019-06-26T08:45:00.653Z,13.53
2019-06-26T08:47:28.654Z,12.68
2019-06-26T08:49:56.682Z,13.05
2019-06-26T08:52:24.607Z,13.03
2019-06-26T08:54:52.667Z,12.68
2019-06-26T08:57:20.693Z,12.23
2019-06-26T08:59:48.654Z,12.75
2019-06-26T09:02:16.629Z,12.40
2019-06-26T09:04:44.531Z,12.68
2019-06-26T09:07:12.507Z,12.10
2019-06-26T09:09:40.524Z,11.15
2019-06-26T09:12:08.403Z,11.12
2019-06-26T09:14:36.284Z,11.08
2019-06-26T09:17:04.166Z,11.05
2019-06-26T09:19:32.036Z,10.40
2019-06-26T09:22:00.084Z,10.00
2019-06-26T09:24:28.035Z,10.60
2019-06-26T09:26:55.893Z,10.78
2019-06-26T09:29:24.179Z,11.33
2019-06-26T09:31:52.041Z,10.53
2019-06-26T09:34:20.043Z,10.75
2019-06-26T09:36:47.750Z,10.77
2019-06-26T09:39:15.597Z,10.38
2019-06-26T09:41:43.478Z,10.13
2019-06-26T09:44:11.168Z,10.10
2019-06-26T09:46:39.047Z,10.82
2019-06-26T09:49:06.978Z,10.82
2019-06-26T09:51:34.647Z,10.67
2019-06-26T09:54:02.275Z,9.77
2019-06-26T09:56:30.141Z,9.95
2019-06-26T09:58:58.017Z,10.25
2019-06-26T10:01:26.016Z,10.10
2019-06-26T10:03:53.580Z,10.10
2019-06-26T10:06:21.188Z,9.73
2019-06-26T10:08:48.765Z,9.93
2019-06-26T10:11:16.655Z,9.03
2019-06-26T10:13:44.227Z,9.30
2019-06-26T10:16:12.081Z,10.08
2019-06-26T10:18:39.969Z,10.18
2019-06-26T10:21:07.851Z,10.68
2019-06-26T10:23:35.545Z,10.67
2019-06-26T10:26:03.365Z,10.57
2019-06-26T10:28:30.990Z,11.00
2019-06-26T10:30:58.624Z,10.07
2019-06-26T10:33:26.213Z,10.27
2019-06-26T10:35:53.810Z,10.80
2019-06-26T10:38:21.493Z,11.13
2019-06-26T10:40:49.106Z,11.13
2019-06-26T10:43:16.715Z,11.33
2019-06-26T10:45:44.682Z,10.50
2019-06-26T10:48:12.272Z,11.00
2019-06-26T10:50:49.926Z,11.00
2019-06-26T10:53:09.141Z,10.90
2019-06-26T10:55:36.773Z,11.43
2019-06-26T10:58:04.326Z,10.93
2019-06-26T11:00:32.014Z,11.30
2019-06-26T11:02:59.723Z,11.03
2019-06-26T11:05:27.285Z,11.47
2019-06-26T11:07:54.862Z,11.40
2019-06-26T11:10:22.459Z,11.70
2019-06-26T11:12:50.042Z,11.57
2019-06-26T11:15:17.688Z,11.60
2019-06-26T11:17:45.402Z,11.70
2019-06-26T11:20:13.125Z,11.60
2019-06-26T11:22:40.706Z,11.63
2019-06-26T11:25:08.260Z,10.67
2019-06-26T11:27:35.847Z,11.47
2019-06-26T11:30:03.669Z,11.63
2019-06-26T11:32:31.467Z,11.20
2019-06-26T11:34:59.063Z,11.30
2019-06-26T11:37:26.755Z,11.33
2019-06-26T11:39:54.356Z,11.13
2019-06-26T11:42:21.960Z,11.50
2019-06-26T11:44:49.622Z,11.23
2019-06-26T11:47:17.241Z,10.77
2019-06-26T11:49:59.053Z,10.40
2019-06-26T11:52:14.176Z,10.80
2019-06-26T11:54:41.814Z,10.70
2019-06-26T11:57:09.398Z,10.90
2019-06-26T11:59:37.004Z,10.90
2019-06-26T12:02:04.740Z,11.00
2019-06-26T12:04:32.466Z,11.13
2019-06-26T12:07:00.127Z,11.33
2019-06-26T12:09:27.836Z,11.93
2019-06-26T12:11:55.429Z,11.10
2019-06-26T12:14:23.051Z,10.67
2019-06-26T12:16:50.718Z,10.87
2019-06-26T12:19:21.025Z,11.17
2019-06-26T12:21:47.639Z,11.17
2019-06-26T12:24:15.325Z,11.17
2019-06-26T12:26:42.901Z,11.20
2019-06-26T12:29:10.498Z,10.93
2019-06-26T12:31:38.123Z,10.67
2019-06-26T12:34:05.752Z,11.50
2019-06-26T12:36:33.361Z,11.50
2019-06-26T12:39:01.142Z,11.00
2019-06-26T12:41:28.797Z,10.70
2019-06-26T12:43:56.481Z,11.17
2019-06-26T12:46:24.161Z,11.37
2019-06-26T12:48:51.842Z,11.30
2019-06-26T12:51:19.518Z,11.10
2019-06-26T12:53:47.131Z,10.93
2019-06-26T12:56:14.711Z,10.97
2019-06-26T12:58:42.437Z,11.30
2019-06-26T13:01:10.125Z,11.13
2019-06-26T13:03:37.676Z,11.13
2019-06-26T13:06:05.247Z,11.83
2019-06-26T13:08:32.817Z,11.53
2019-06-26T13:11:00.427Z,11.43
2019-06-26T13:13:28.030Z,11.40
2019-06-26T13:15:55.607Z,10.80
2019-06-26T13:18:23.180Z,12.03
2019-06-26T13:20:53.247Z,11.40
2019-06-26T13:23:20.090Z,11.03
2019-06-26T13:25:47.651Z,11.27
2019-06-26T13:28:15.239Z,11.10
2019-06-26T13:30:42.942Z,11.20
2019-06-26T13:33:10.591Z,10.93
2019-06-26T13:35:38.202Z,10.90
2019-06-26T13:38:05.760Z,11.23
2019-06-26T13:40:33.375Z,10.97
2019-06-26T13:43:01.102Z,11.37
2019-06-26T13:45:28.712Z,11.37
2019-06-26T13:47:56.332Z,11.57
2019-06-26T13:50:23.948Z,11.63
2019-06-26T13:52:51.562Z,10.90
2019-06-26T13:55:19.150Z,10.70
2019-06-26T13:57:46.827Z,11.13
2019-06-26T14:00:14.433Z,10.53
2019-06-26T14:02:42.002Z,10.57
2019-06-26T14:05:09.605Z,10.70
2019-06-26T14:07:37.164Z,11.00
2019-06-26T14:10:04.721Z,10.90
2019-06-26T14:12:32.307Z,10.33
2019-06-26T14:14:59.993Z,10.77
2019-06-26T14:17:27.590Z,11.53
2019-06-26T14:19:55.270Z,10.80
2019-06-26T14:22:22.835Z,10.67
2019-06-26T14:24:54.046Z,11.37
2019-06-26T14:27:19.993Z,10.90
2019-06-26T14:29:47.791Z,11.27
2019-06-26T14:32:15.370Z,11.33
2019-06-26T14:34:43.102Z,11.10
2019-06-26T14:37:10.730Z,11.53
2019-06-26T14:39:40.988Z,11.20
2019-06-26T14:42:07.784Z,11.47
2019-06-26T14:44:35.502Z,11.00
2019-06-26T14:47:03.392Z,11.43
2019-06-26T14:49:31.019Z,11.20
2019-06-26T14:51:58.596Z,10.97
2019-06-26T14:54:26.252Z,11.23
2019-06-26T14:56:53.932Z,11.70
2019-06-26T14:59:22.871Z,11.63
2019-06-26T15:01:50.562Z,12.03
2019-06-26T15:04:18.235Z,11.80
2019-06-26T15:06:45.953Z,12.40
2019-06-26T15:09:13.696Z,12.27
2019-06-26T15:11:41.377Z,11.70
2019-06-26T15:14:09.118Z,11.83
2019-06-26T15:16:36.848Z,12.17
2019-06-26T15:19:04.405Z,12.90
2019-06-26T15:21:32.041Z,12.00
2019-06-26T15:23:59.694Z,12.37
2019-06-26T15:26:27.457Z,12.50
2019-06-26T15:28:55.124Z,11.70
2019-06-26T15:31:22.865Z,12.27
2019-06-26T15:33:50.532Z,11.87
2019-06-26T15:36:18.188Z,12.20
2019-06-26T15:38:45.781Z,11.80
2019-06-26T15:41:13.377Z,12.13
2019-06-26T15:43:40.970Z,12.00
2019-06-26T15:46:08.579Z,12.23
2019-06-26T15:48:36.192Z,12.57
2019-06-26T15:51:03.840Z,11.83
2019-06-26T15:53:31.408Z,12.13
2019-06-26T15:55:59.170Z,11.97
2019-06-26T15:58:28.921Z,11.60
2019-06-26T16:00:56.709Z,12.30
2019-06-26T16:03:24.309Z,11.93
2019-06-26T16:05:51.921Z,11.97
2019-06-26T16:08:19.509Z,12.73
2019-06-26T16:10:47.120Z,12.50
2019-06-26T16:13:14.737Z,12.47
2019-06-26T16:15:42.534Z,12.30
2019-06-26T16:18:30.668Z,11.80
2019-06-26T16:20:58.259Z,11.87
2019-06-26T16:23:25.846Z,12.50
2019-06-26T16:25:53.495Z,12.30
2019-06-26T16:28:21.171Z,12.27
2019-06-26T16:30:48.847Z,12.70
2019-06-26T16:33:16.534Z,11.67
2019-06-26T16:35:44.198Z,12.63
2019-06-26T16:38:11.815Z,12.57
2019-06-26T16:40:39.404Z,11.93
2019-06-26T16:43:06.997Z,12.23
2019-06-26T16:45:34.692Z,12.10
2019-06-26T16:48:02.278Z,12.40
2019-06-26T16:50:29.970Z,12.30
2019-06-26T16:52:57.705Z,12.77
2019-06-26T16:55:25.330Z,12.33
2019-06-26T16:57:52.966Z,11.67
2019-06-26T17:00:20.642Z,12.30
2019-06-26T17:02:48.358Z,12.03
2019-06-26T17:05:15.949Z,13.57
2019-06-26T17:07:43.545Z,13.50
2019-06-26T17:10:11.142Z,13.30
2019-06-26T17:12:38.845Z,13.60
2019-06-26T17:15:06.752Z,14.13
2019-06-26T17:17:34.379Z,14.53
2019-06-26T17:20:02.079Z,14.80
2019-06-26T17:22:29.752Z,14.63
2019-06-26T17:24:57.820Z,14.83
2019-06-26T17:27:25.565Z,14.77
2019-06-26T17:29:53.348Z,15.80
2019-06-26T17:32:20.956Z,15.17
2019-06-26T17:34:48.895Z,15.85
2019-06-26T17:37:16.542Z,15.50
2019-06-26T17:39:44.669Z,14.93
2019-06-26T17:42:12.361Z,15.57
2019-06-26T17:44:40.262Z,15.63
2019-06-26T17:47:07.839Z,15.43
2019-06-26T17:49:35.841Z,15.75
2019-06-26T17:52:03.891Z,15.25
2019-06-26T17:54:31.793Z,15.68
2019-06-26T17:56:59.726Z,15.40
2019-06-26T17:59:27.696Z,15.83
2019-06-26T18:01:55.703Z,15.48
2019-06-26T18:04:23.580Z,15.65
2019-06-26T18:06:51.542Z,16.00
2019-06-26T18:09:19.446Z,16.23
2019-06-26T18:11:47.347Z,15.55
2019-06-26T18:14:15.334Z,16.20
2019-06-26T18:16:43.221Z,15.70
2019-06-26T18:19:11.206Z,15.30
2019-06-26T18:21:39.114Z,15.80
2019-06-26T18:24:07.082Z,15.68
2019-06-26T18:26:35.156Z,15.88
2019-06-26T18:29:03.072Z,15.43
2019-06-26T18:31:30.995Z,15.68
2019-06-26T18:33:58.875Z,15.20
2019-06-26T18:36:26.809Z,15.60
2019-06-26T18:38:54.679Z,15.18
2019-06-26T18:41:22.289Z,14.70
2019-06-26T18:43:50.277Z,15.05
2019-06-26T18:46:18.300Z,14.98
2019-06-26T18:48:46.290Z,14.87
2019-06-26T18:51:14.278Z,14.90
2019-06-26T18:53:53.073Z,15.05
2019-06-26T18:56:11.913Z,15.43
2019-06-26T18:58:39.889Z,15.40
2019-06-26T19:01:07.882Z,14.85
2019-06-26T19:03:35.844Z,15.28
2019-06-26T19:06:03.818Z,15.08
2019-06-26T19:08:31.688Z,14.87
2019-06-26T19:10:59.600Z,15.10
2019-06-26T19:13:27.610Z,14.95
2019-06-26T19:15:55.504Z,15.25
2019-06-26T19:18:23.441Z,15.13
2019-06-26T19:20:51.402Z,14.15
2019-06-26T19:23:19.394Z,15.40
2019-06-26T19:25:47.345Z,14.80
2019-06-26T19:28:15.381Z,16.15
2019-06-26T19:30:43.308Z,15.45
2019-06-26T19:33:11.278Z,15.72
2019-06-26T19:35:39.195Z,15.30
2019-06-26T19:38:07.137Z,15.55
2019-06-26T19:40:35.132Z,16.82
2019-06-26T19:43:03.255Z,16.70
2019-06-26T19:45:31.234Z,16.17
2019-06-26T19:47:59.361Z,15.43
2019-06-26T19:50:27.340Z,16.27
2019-06-26T19:52:55.793Z,15.53
2019-06-26T19:55:24.009Z,15.63
2019-06-26T19:57:51.914Z,16.00
2019-06-26T20:00:21.407Z,16.25
2019-06-26T20:02:49.271Z,16.02
2019-06-26T20:05:17.250Z,16.17
2019-06-26T20:07:45.123Z,16.30
2019-06-26T20:10:13.053Z,16.87
2019-06-26T20:12:40.952Z,16.95
2019-06-26T20:15:08.951Z,16.35
2019-06-26T20:17:36.932Z,16.25
2019-06-26T20:20:04.927Z,16.55
2019-06-26T20:22:32.914Z,15.70
2019-06-26T20:25:00.972Z,16.52
2019-06-26T20:27:29.032Z,16.27
2019-06-26T20:29:57.021Z,16.27
2019-06-26T20:32:24.887Z,16.10
2019-06-26T20:34:52.796Z,16.77
2019-06-26T20:37:20.708Z,15.85
2019-06-26T20:39:48.641Z,16.12
2019-06-26T20:42:16.700Z,16.12
2019-06-26T20:44:44.770Z,16.50
2019-06-26T20:47:12.749Z,16.32
2019-06-26T20:49:52.756Z,15.83
2019-06-26T20:52:10.378Z,15.65
2019-06-26T20:54:38.273Z,15.63
2019-06-26T20:57:06.216Z,15.18
2019-06-26T20:59:34.223Z,16.02
2019-06-26T21:02:02.182Z,15.45
2019-06-26T21:04:30.075Z,15.63
2019-06-26T21:06:57.981Z,15.75
2019-06-26T21:09:25.897Z,15.70
2019-06-26T21:11:53.971Z,14.85
2019-06-26T21:14:21.978Z,15.20
2019-06-26T21:16:49.915Z,15.63
2019-06-26T21:19:17.852Z,16.17
2019-06-26T21:21:45.926Z,16.00
2019-06-26T21:24:13.844Z,15.70
2019-06-26T21:26:41.846Z,15.38
2019-06-26T21:29:09.762Z,15.50
2019-06-26T21:31:37.655Z,15.38
2019-06-26T21:34:05.561Z,15.65
2019-06-26T21:36:33.586Z,15.40
2019-06-26T21:39:01.555Z,16.20
2019-06-26T21:41:29.430Z,15.48
2019-06-26T21:43:57.332Z,15.78
2019-06-26T21:46:25.250Z,16.30
2019-06-26T21:48:53.141Z,16.30
2019-06-26T21:51:21.180Z,15.95
2019-06-26T21:53:49.196Z,16.17
2019-06-26T21:56:17.213Z,16.32
2019-06-26T21:58:45.236Z,16.50
2019-06-26T22:01:13.231Z,16.20
2019-06-26T22:03:41.183Z,15.80
2019-06-26T22:06:09.178Z,15.93
2019-06-26T22:08:37.189Z,16.12
2019-06-26T22:11:05.255Z,16.07
2019-06-26T22:13:33.406Z,16.20
2019-06-26T22:16:01.488Z,16.45
2019-06-26T22:18:29.476Z,16.67
2019-06-26T22:20:57.503Z,17.07
2019-06-26T22:23:25.484Z,16.93
2019-06-26T22:25:53.500Z,17.52
2019-06-26T22:28:21.394Z,16.87
2019-06-26T22:30:49.304Z,16.27
2019-06-26T22:33:17.186Z,16.85
2019-06-26T22:35:45.119Z,16.90
2019-06-26T22:38:13.006Z,17.12
2019-06-26T22:40:40.901Z,16.75
2019-06-26T22:43:08.781Z,17.40
2019-06-26T22:45:36.975Z,17.15
2019-06-26T22:48:04.906Z,18.10
2019-06-26T22:50:32.852Z,17.30
2019-06-26T22:53:00.733Z,18.00
2019-06-26T22:55:28.641Z,17.82
2019-06-26T22:57:56.544Z,18.42
2019-06-26T23:00:24.468Z,18.57
2019-06-26T23:02:52.447Z,18.02
2019-06-26T23:05:20.381Z,17.77
2019-06-26T23:07:48.269Z,18.32
2019-06-26T23:10:16.168Z,17.75
2019-06-26T23:12:44.041Z,18.40
2019-06-26T23:15:11.952Z,18.17
2019-06-26T23:17:39.866Z,18.30
2019-06-26T23:20:07.870Z,19.55
2019-06-26T23:22:35.785Z,18.27
2019-06-26T23:25:03.817Z,18.65
2019-06-26T23:27:31.792Z,18.48
2019-06-26T23:29:59.771Z,18.32
2019-06-26T23:32:27.732Z,18.25
2019-06-26T23:34:55.715Z,18.62
2019-06-26T23:37:23.707Z,18.85
2019-06-26T23:39:51.610Z,18.77
2019-06-26T23:42:19.764Z,18.50
2019-06-26T23:44:47.683Z,19.87
2019-06-26T23:47:15.653Z,18.62
2019-06-26T23:49:42.854Z,18.98
2019-06-26T23:52:10.851Z,19.48
2019-06-26T23:54:38.776Z,18.75
2019-06-26T23:57:06.753Z,19.85
2019-06-26T23:59:34.673Z,20.92
